Kenilworth, New Jersey
Current Conditions -  °F | °C
As of 9:15 AM on Thursday 29 Jan 2015 (Local Time) from KLDJ Reporting Station
Clear Clear  
Wind Chill: 28°   Ceiling: Unl
Heat Index: 28°   Visibility: 10mi
Dew Point:   Wind: 3mph
Humidity: 40%   Direction: 10°N
Pressure: 30.35"   Gusts: NA
Location:  40.68°N, 74.29°W
Report Text: KLDJ 291415Z AUTO 01003KT 10SM CLR M02/M14 A3035 RMK AO2 T10241145
Loading
Personal Weather Stations






























Interactive Weather Map New forecast layout! Learn more

10-Day Weather Forecast

Advertisements
Track Severe Weather on mobile